Time;durP1;ratioP1;P1;durP2;ratioP2;P2;SDS_P1;SDS_P2;PMS_P1;PMS_P2;Temp;Humidity;BMP_temperature;BMP_pressure;BME280_temperature;BME280_humidity;BME280_pressure;Samples;Min_cycle;Max_cycle;Signal;HPM_P1;HPM_P2
2024/04/20 00:00:31;;;;;;;1.13;0.28;;;;;;;;;;5376263;26;20030;-55
2024/04/20 00:02:57;;;;;;;0.85;0.35;;;;;;;;;;5374202;26;20016;-57
2024/04/20 00:05:23;;;;;;;0.32;0.32;;;;;;;;;;5374066;26;20018;-56
2024/04/20 00:07:48;;;;;;;2.55;0.30;;;;;;;;;;5344893;26;20505;-50
2024/04/20 00:10:17;;;;;;;0.68;0.43;;;;;;;;;;5394555;26;20004;-53
2024/04/20 00:12:43;;;;;;;1.55;0.40;;;;;;;;;;5410772;26;20020;-54
2024/04/20 00:15:09;;;;;;;0.47;0.30;;;;;;;;;;5410759;26;20019;-57
2024/04/20 00:17:36;;;;;;;0.45;0.35;;;;;;;;;;5384133;26;20096;-56
2024/04/20 00:20:01;;;;;;;0.40;0.40;;;;;;;;;;5373516;26;20035;-49
2024/04/20 00:22:27;;;;;;;0.13;0.13;;;;;;;;;;5375219;26;20372;-56
2024/04/20 00:24:53;;;;;;;0.40;0.30;;;;;;;;;;5374066;26;20004;-50
2024/04/20 00:27:19;;;;;;;1.42;0.60;;;;;;;;;;5377901;26;19996;-55
2024/04/20 00:29:44;;;;;;;1.00;0.32;;;;;;;;;;5398963;26;20024;-57
2024/04/20 00:32:10;;;;;;;0.73;0.43;;;;;;;;;;5408895;26;20017;-56
2024/04/20 00:34:36;;;;;;;0.10;0.10;;;;;;;;;;5379103;26;20008;-55
2024/04/20 00:37:05;;;;;;;0.32;0.30;;;;;;;;;;5400190;26;20008;-57
2024/04/20 00:39:31;;;;;;;0.47;0.40;;;;;;;;;;5374928;26;20008;-55
2024/04/20 00:41:57;;;;;;;0.60;0.30;;;;;;;;;;5375266;26;20107;-54
2024/04/20 00:44:23;;;;;;;0.20;0.20;;;;;;;;;;5374977;26;20080;-54
2024/04/20 00:46:49;;;;;;;2.40;0.60;;;;;;;;;;5373663;26;20016;-53
2024/04/20 00:49:15;;;;;;;0.75;0.40;;;;;;;;;;5385565;26;20020;-54
2024/04/20 00:51:42;;;;;;;0.30;0.30;;;;;;;;;;5343972;26;20015;-54
2024/04/20 00:54:09;;;;;;;0.40;0.40;;;;;;;;;;5405265;26;20022;-55
2024/04/20 00:56:35;;;;;;;0.40;0.40;;;;;;;;;;5409022;26;20004;-56
2024/04/20 00:59:00;;;;;;;1.75;0.68;;;;;;;;;;5382576;26;20034;-57
2024/04/20 01:01:26;;;;;;;0.82;0.60;;;;;;;;;;5373135;26;20000;-53
2024/04/20 01:03:53;;;;;;;0.93;0.50;;;;;;;;;;5372448;26;20040;-54
2024/04/20 01:06:18;;;;;;;0.47;0.40;;;;;;;;;;5374733;26;20015;-56
2024/04/20 01:08:44;;;;;;;1.00;0.70;;;;;;;;;;5375319;26;20356;-59
2024/04/20 01:11:11;;;;;;;0.50;0.50;;;;;;;;;;5374504;26;20035;-55
2024/04/20 01:13:37;;;;;;;0.63;0.47;;;;;;;;;;5372507;26;20012;-57
2024/04/20 01:16:03;;;;;;;1.70;0.57;;;;;;;;;;5374411;26;20422;-56
2024/04/20 01:18:28;;;;;;;1.70;0.70;;;;;;;;;;5374954;26;20371;-54
2024/04/20 01:20:55;;;;;;;0.80;0.60;;;;;;;;;;5374035;26;20000;-55
2024/04/20 01:23:21;;;;;;;0.60;0.50;;;;;;;;;;5372372;26;20671;-58
2024/04/20 01:25:49;;;;;;;1.10;0.60;;;;;;;;;;5374180;26;20015;-54
2024/04/20 01:28:14;;;;;;;1.67;0.50;;;;;;;;;;5405942;26;20014;-56
2024/04/20 01:30:41;;;;;;;0.52;0.40;;;;;;;;;;5372469;26;20341;-55
2024/04/20 01:33:07;;;;;;;0.85;0.50;;;;;;;;;;5374020;26;20005;-54
2024/04/20 01:35:33;;;;;;;1.45;0.60;;;;;;;;;;5343195;26;20035;-56
2024/04/20 01:37:58;;;;;;;0.57;0.40;;;;;;;;;;5374143;26;20004;-56
2024/04/20 01:40:25;;;;;;;1.63;0.70;;;;;;;;;;5372756;26;20873;-57
2024/04/20 01:42:50;;;;;;;0.77;0.32;;;;;;;;;;5374592;26;20020;-57
2024/04/20 01:45:16;;;;;;;0.77;0.50;;;;;;;;;;5374637;26;20008;-58
2024/04/20 01:47:42;;;;;;;1.30;0.60;;;;;;;;;;5374480;26;20004;-55
2024/04/20 01:50:09;;;;;;;1.15;0.43;;;;;;;;;;5355270;26;20012;-55
2024/04/20 01:52:35;;;;;;;1.35;0.73;;;;;;;;;;5381003;26;20015;-54
2024/04/20 01:55:00;;;;;;;4.13;0.65;;;;;;;;;;5409794;26;20557;-56
2024/04/20 01:57:26;;;;;;;0.55;0.40;;;;;;;;;;5410030;26;20003;-56
2024/04/20 01:59:51;;;;;;;2.17;0.63;;;;;;;;;;5397989;26;20478;-56
2024/04/20 02:02:19;;;;;;;3.15;0.75;;;;;;;;;;5374222;26;20400;-59
2024/04/20 02:04:45;;;;;;;0.77;0.52;;;;;;;;;;5374047;26;20008;-53
2024/04/20 02:07:10;;;;;;;1.25;0.57;;;;;;;;;;5373791;26;20024;-55
2024/04/20 02:09:36;;;;;;;1.38;0.70;;;;;;;;;;5342373;26;20471;-54
2024/04/20 02:12:02;;;;;;;1.92;0.55;;;;;;;;;;5373424;26;20609;-56
2024/04/20 02:14:28;;;;;;;0.52;0.40;;;;;;;;;;5373753;26;20081;-56
2024/04/20 02:16:54;;;;;;;0.30;0.30;;;;;;;;;;5373950;26;20012;-54
2024/04/20 02:19:20;;;;;;;1.38;0.70;;;;;;;;;;5375734;26;20670;-55
2024/04/20 02:21:46;;;;;;;1.25;0.70;;;;;;;;;;5394051;26;20027;-56
2024/04/20 02:24:12;;;;;;;1.25;0.63;;;;;;;;;;5388321;26;20850;-56
2024/04/20 02:26:38;;;;;;;0.90;0.70;;;;;;;;;;5385428;26;20015;-52
2024/04/20 02:29:04;;;;;;;1.40;0.57;;;;;;;;;;5380006;26;20557;-55
2024/04/20 02:31:30;;;;;;;2.10;0.98;;;;;;;;;;5374704;26;20011;-54
2024/04/20 02:33:56;;;;;;;2.20;0.70;;;;;;;;;;5374097;26;20004;-54
2024/04/20 02:36:26;;;;;;;1.05;0.70;;;;;;;;;;5385806;26;20010;-58
2024/04/20 02:38:52;;;;;;;0.93;0.38;;;;;;;;;;5409711;26;20030;-56
2024/04/20 02:41:17;;;;;;;1.17;0.77;;;;;;;;;;5398041;26;20004;-57
2024/04/20 02:43:43;;;;;;;2.65;0.90;;;;;;;;;;5374139;26;20022;-55
2024/04/20 02:46:09;;;;;;;1.15;0.60;;;;;;;;;;5373739;26;20488;-57
2024/04/20 02:48:35;;;;;;;1.90;0.70;;;;;;;;;;5373439;26;20005;-53
2024/04/20 02:51:01;;;;;;;1.05;0.68;;;;;;;;;;5400115;26;20052;-52
2024/04/20 02:53:27;;;;;;;1.17;0.52;;;;;;;;;;5384939;26;20044;-52
2024/04/20 02:55:53;;;;;;;7.18;1.13;;;;;;;;;;5408783;26;20023;-55
2024/04/20 02:58:18;;;;;;;1.90;0.70;;;;;;;;;;5408569;26;20081;-55
2024/04/20 03:00:57;;;;;;;2.50;0.98;;;;;;;;;;5408622;26;20344;-55
2024/04/20 03:03:24;;;;;;;1.45;0.80;;;;;;;;;;5379667;26;20015;-54
2024/04/20 03:05:50;;;;;;;0.35;0.30;;;;;;;;;;5375186;26;20360;-55
2024/04/20 03:08:16;;;;;;;1.40;0.80;;;;;;;;;;5402024;26;20363;-57
2024/04/20 03:10:41;;;;;;;4.53;0.90;;;;;;;;;;5411982;26;19999;-56
2024/04/20 03:13:07;;;;;;;0.93;0.60;;;;;;;;;;5387959;26;20074;-54
2024/04/20 03:15:33;;;;;;;1.02;0.50;;;;;;;;;;5345184;26;20073;-55
2024/04/20 03:17:58;;;;;;;1.27;0.80;;;;;;;;;;5374901;26;20014;-57
2024/04/20 03:20:24;;;;;;;0.98;0.52;;;;;;;;;;5395457;26;20017;-56
2024/04/20 03:22:49;;;;;;;1.10;0.40;;;;;;;;;;5398473;26;20004;-57
2024/04/20 03:25:15;;;;;;;1.13;0.43;;;;;;;;;;5374449;26;20012;-53
2024/04/20 03:27:41;;;;;;;0.93;0.70;;;;;;;;;;5402657;26;20570;-56
2024/04/20 03:30:08;;;;;;;1.25;0.73;;;;;;;;;;5409613;26;20083;-54
2024/04/20 03:32:33;;;;;;;0.88;0.60;;;;;;;;;;5405703;26;20478;-56
2024/04/20 03:34:59;;;;;;;1.17;0.82;;;;;;;;;;5374971;26;20059;-56
2024/04/20 03:37:25;;;;;;;0.88;0.60;;;;;;;;;;5376806;26;20502;-55
2024/04/20 03:39:51;;;;;;;1.40;0.50;;;;;;;;;;5376509;26;20004;-56
2024/04/20 03:42:16;;;;;;;0.32;0.30;;;;;;;;;;5374152;26;20015;-55
2024/04/20 03:44:43;;;;;;;1.35;0.70;;;;;;;;;;5374007;26;20438;-53
2024/04/20 03:47:08;;;;;;;0.85;0.50;;;;;;;;;;5385394;26;20378;-57
2024/04/20 03:49:34;;;;;;;1.13;0.65;;;;;;;;;;5401605;26;20014;-56
2024/04/20 03:52:00;;;;;;;1.80;0.70;;;;;;;;;;5374115;26;20011;-56
2024/04/20 03:54:25;;;;;;;1.88;0.70;;;;;;;;;;5391979;26;20433;-57
2024/04/20 03:56:51;;;;;;;1.20;0.70;;;;;;;;;;5411276;26;20577;-56
2024/04/20 03:59:17;;;;;;;2.53;0.80;;;;;;;;;;5380120;26;20416;-56
2024/04/20 04:01:42;;;;;;;0.95;0.80;;;;;;;;;;5380351;26;20073;-57
2024/04/20 04:04:08;;;;;;;1.10;0.70;;;;;;;;;;5400459;26;20099;-56
2024/04/20 04:06:34;;;;;;;1.02;0.60;;;;;;;;;;5373950;26;20069;-54
2024/04/20 04:09:00;;;;;;;1.48;1.00;;;;;;;;;;5376112;26;20001;-56
2024/04/20 04:11:26;;;;;;;2.05;0.75;;;;;;;;;;5373838;26;20004;-58
2024/04/20 04:13:52;;;;;;;1.80;0.90;;;;;;;;;;5373696;26;20008;-59
2024/04/20 04:16:17;;;;;;;1.73;0.80;;;;;;;;;;5375858;26;20023;-56
2024/04/20 04:18:43;;;;;;;1.48;0.85;;;;;;;;;;5373601;26;20030;-57
2024/04/20 04:21:10;;;;;;;2.38;0.85;;;;;;;;;;5374999;26;20361;-55
2024/04/20 04:23:37;;;;;;;1.75;0.90;;;;;;;;;;5375375;26;20009;-55
2024/04/20 04:26:03;;;;;;;2.08;1.00;;;;;;;;;;5377736;26;20004;-53
2024/04/20 04:28:32;;;;;;;1.60;0.88;;;;;;;;;;5409264;26;20069;-57
2024/04/20 04:30:59;;;;;;;1.83;0.93;;;;;;;;;;5411311;26;20012;-56
2024/04/20 04:33:24;;;;;;;1.35;0.60;;;;;;;;;;5409415;26;20077;-55
2024/04/20 04:35:57;;;;;;;1.42;0.88;;;;;;;;;;5386945;26;20020;-59
2024/04/20 04:38:23;;;;;;;2.42;0.73;;;;;;;;;;5375225;26;20011;-55
2024/04/20 04:40:49;;;;;;;3.35;0.90;;;;;;;;;;5375282;26;20081;-56
2024/04/20 04:43:15;;;;;;;4.10;1.08;;;;;;;;;;5344438;26;20000;-56
2024/04/20 04:45:40;;;;;;;1.13;0.60;;;;;;;;;;5375596;26;20012;-57
2024/04/20 04:48:06;;;;;;;2.30;1.00;;;;;;;;;;5372832;26;20008;-54
2024/04/20 04:50:32;;;;;;;2.45;0.65;;;;;;;;;;5344285;26;20906;-58
2024/04/20 04:52:59;;;;;;;1.23;0.95;;;;;;;;;;5373118;26;20016;-52
2024/04/20 04:55:25;;;;;;;2.45;1.23;;;;;;;;;;5375298;26;20025;-54
2024/04/20 04:57:51;;;;;;;1.58;0.98;;;;;;;;;;5374898;26;20004;-54
2024/04/20 05:00:16;;;;;;;1.60;1.10;;;;;;;;;;5375042;26;20023;-55
2024/04/20 05:02:42;;;;;;;1.35;0.70;;;;;;;;;;5371981;26;20426;-54
2024/04/20 05:05:08;;;;;;;1.80;0.95;;;;;;;;;;5372586;26;20012;-55
2024/04/20 05:07:34;;;;;;;0.98;0.70;;;;;;;;;;5375625;26;20479;-55
2024/04/20 05:09:59;;;;;;;2.10;1.20;;;;;;;;;;5375202;26;20078;-52
2024/04/20 05:12:25;;;;;;;3.00;1.05;;;;;;;;;;5372969;26;20048;-53
2024/04/20 05:14:53;;;;;;;4.85;1.35;;;;;;;;;;5375054;26;20099;-55
2024/04/20 05:17:19;;;;;;;1.50;0.90;;;;;;;;;;5375440;26;20081;-56
2024/04/20 05:19:45;;;;;;;3.90;1.25;;;;;;;;;;5374925;26;20004;-54
2024/04/20 05:22:11;;;;;;;2.92;1.38;;;;;;;;;;5375104;26;20082;-55
2024/04/20 05:24:36;;;;;;;4.63;1.45;;;;;;;;;;5373937;26;20364;-56
2024/04/20 05:27:02;;;;;;;2.17;1.25;;;;;;;;;;5375185;26;20058;-54
2024/04/20 05:29:28;;;;;;;3.72;1.77;;;;;;;;;;5374467;26;20016;-54
2024/04/20 05:31:54;;;;;;;4.05;1.10;;;;;;;;;;5372866;26;20376;-58
2024/04/20 05:34:19;;;;;;;4.32;1.20;;;;;;;;;;5374680;26;20005;-54
2024/04/20 05:36:45;;;;;;;1.58;1.10;;;;;;;;;;5374645;26;20019;-53
2024/04/20 05:39:11;;;;;;;4.05;1.27;;;;;;;;;;5374070;26;20004;-57
2024/04/20 05:41:37;;;;;;;6.28;3.00;;;;;;;;;;5343370;26;20206;-54
2024/04/20 05:44:02;;;;;;;4.90;1.10;;;;;;;;;;5372670;26;20032;-56
2024/04/20 05:46:28;;;;;;;3.00;1.33;;;;;;;;;;5372139;26;20476;-58
2024/04/20 05:48:55;;;;;;;3.75;1.20;;;;;;;;;;5372347;26;20008;-57
2024/04/20 05:51:21;;;;;;;0.95;0.70;;;;;;;;;;5372211;26;20031;-57
2024/04/20 05:53:46;;;;;;;1.38;1.02;;;;;;;;;;5374248;26;20005;-51
2024/04/20 05:56:14;;;;;;;2.92;1.25;;;;;;;;;;5373915;26;20018;-56
2024/04/20 05:58:40;;;;;;;3.30;1.17;;;;;;;;;;5374351;26;20004;-55
2024/04/20 06:01:06;;;;;;;1.95;1.08;;;;;;;;;;5373852;26;20008;-54
2024/04/20 06:03:32;;;;;;;2.00;1.20;;;;;;;;;;5373606;26;20004;-54
2024/04/20 06:05:58;;;;;;;1.45;1.00;;;;;;;;;;5371359;26;20004;-54
2024/04/20 06:08:24;;;;;;;2.10;1.10;;;;;;;;;;5383754;26;20019;-57
2024/04/20 06:10:56;;;;;;;1.73;1.50;;;;;;;;;;5373681;26;20360;-57
2024/04/20 06:13:22;;;;;;;2.85;1.60;;;;;;;;;;5373479;26;20018;-57
2024/04/20 06:15:48;;;;;;;2.08;1.20;;;;;;;;;;5373504;26;20460;-62
2024/04/20 06:18:14;;;;;;;2.58;1.27;;;;;;;;;;5376091;26;20019;-53
2024/04/20 06:20:40;;;;;;;1.75;1.10;;;;;;;;;;5393279;26;20011;-56
2024/04/20 06:23:06;;;;;;;2.33;1.00;;;;;;;;;;5375442;26;20004;-55
2024/04/20 06:25:32;;;;;;;9.23;1.05;;;;;;;;;;5371920;26;20082;-58
2024/04/20 06:27:59;;;;;;;1.60;1.20;;;;;;;;;;5399290;26;20462;-57
2024/04/20 06:30:24;;;;;;;3.40;1.33;;;;;;;;;;5371754;26;20001;-56
2024/04/20 06:32:51;;;;;;;1.95;1.20;;;;;;;;;;5371299;26;20000;-52
2024/04/20 06:35:17;;;;;;;3.00;1.13;;;;;;;;;;5393449;26;20008;-55
2024/04/20 06:37:42;;;;;;;4.30;1.92;;;;;;;;;;5406378;26;20962;-60
2024/04/20 06:40:08;;;;;;;4.80;1.50;;;;;;;;;;5378743;26;20626;-57
2024/04/20 06:42:36;;;;;;;4.05;1.55;;;;;;;;;;5373329;26;20004;-59
2024/04/20 06:45:02;;;;;;;2.20;0.90;;;;;;;;;;5342394;26;20008;-56
2024/04/20 06:47:31;;;;;;;;;;;;;;;;;;5373639;26;20085;-61
2024/04/20 06:49:57;;;;;;;3.67;1.40;;;;;;;;;;5371469;26;20760;-60
2024/04/20 06:52:23;;;;;;;3.53;1.38;;;;;;;;;;5373081;26;20001;-57
2024/04/20 06:54:51;;;;;;;1.58;1.00;;;;;;;;;;5371193;26;20004;-56
2024/04/20 06:57:17;;;;;;;3.03;1.25;;;;;;;;;;5370828;26;20578;-56
2024/04/20 06:59:43;;;;;;;2.53;1.35;;;;;;;;;;5372956;26;20054;-58
2024/04/20 07:02:08;;;;;;;1.95;1.20;;;;;;;;;;5370945;26;20032;-58
2024/04/20 07:04:34;;;;;;;3.60;1.52;;;;;;;;;;5372667;26;20004;-57
2024/04/20 07:07:00;;;;;;;2.70;1.30;;;;;;;;;;5370251;26;20113;-55
2024/04/20 07:09:26;;;;;;;1.60;1.40;;;;;;;;;;5372963;26;20392;-55
2024/04/20 07:11:51;;;;;;;2.53;1.40;;;;;;;;;;5372598;26;20008;-58
2024/04/20 07:14:17;;;;;;;5.32;1.60;;;;;;;;;;5372647;26;20004;-55
2024/04/20 07:16:46;;;;;;;5.35;1.85;;;;;;;;;;5397346;26;20053;-53
2024/04/20 07:19:12;;;;;;;;;;;;;;;;;;5408652;26;20015;-59
2024/04/20 07:21:38;;;;;;;3.83;1.67;;;;;;;;;;5378758;26;19957;-54
2024/04/20 07:24:07;;;;;;;4.45;1.48;;;;;;;;;;5371720;26;20491;-58
2024/04/20 07:26:33;;;;;;;4.22;1.33;;;;;;;;;;5380368;26;20755;-62
2024/04/20 07:29:00;;;;;;;2.00;1.35;;;;;;;;;;5406615;26;20022;-65
2024/04/20 07:31:27;;;;;;;2.10;1.20;;;;;;;;;;5385024;26;20076;-56
2024/04/20 07:33:52;;;;;;;4.57;1.45;;;;;;;;;;5372763;26;20027;-57
2024/04/20 07:36:19;;;;;;;2.55;1.42;;;;;;;;;;5372819;26;20464;-56
2024/04/20 07:38:45;;;;;;;2.25;1.40;;;;;;;;;;5372233;26;20005;-55
2024/04/20 07:41:11;;;;;;;4.63;1.50;;;;;;;;;;5342011;26;20631;-56
2024/04/20 07:43:36;;;;;;;2.08;1.20;;;;;;;;;;5341444;26;20743;-55
2024/04/20 07:46:02;;;;;;;1.70;1.20;;;;;;;;;;5376667;26;20479;-55
2024/04/20 07:48:28;;;;;;;2.38;1.50;;;;;;;;;;5396337;26;20003;-54
2024/04/20 07:50:53;;;;;;;3.88;1.50;;;;;;;;;;5404201;26;21868;-54
2024/04/20 07:53:19;;;;;;;2.92;1.50;;;;;;;;;;5375450;26;20591;-52
2024/04/20 07:55:44;;;;;;;3.95;1.30;;;;;;;;;;5386303;26;20077;-52
2024/04/20 07:58:10;;;;;;;4.22;1.30;;;;;;;;;;5392785;26;20097;-54
2024/04/20 08:00:36;;;;;;;3.08;1.40;;;;;;;;;;5393680;26;20032;-56
2024/04/20 08:03:02;;;;;;;2.88;1.33;;;;;;;;;;5405363;26;20341;-53
2024/04/20 08:05:27;;;;;;;2.30;1.40;;;;;;;;;;5391632;26;20483;-53
2024/04/20 08:07:53;;;;;;;4.35;1.33;;;;;;;;;;5390364;26;20008;-54
2024/04/20 08:10:19;;;;;;;1.83;1.40;;;;;;;;;;5391769;26;20430;-57
2024/04/20 08:12:45;;;;;;;2.45;1.30;;;;;;;;;;5387133;26;20004;-54
2024/04/20 08:15:12;;;;;;;5.10;1.40;;;;;;;;;;5392911;26;20475;-56
2024/04/20 08:17:39;;;;;;;2.42;1.08;;;;;;;;;;5393351;26;20015;-55
2024/04/20 08:20:05;;;;;;;2.30;1.38;;;;;;;;;;5399124;26;20004;-58
2024/04/20 08:22:30;;;;;;;3.67;1.30;;;;;;;;;;5363560;26;20008;-55
2024/04/20 08:24:56;;;;;;;2.25;1.30;;;;;;;;;;5403950;26;20004;-57
2024/04/20 08:27:22;;;;;;;2.28;1.15;;;;;;;;;;5411008;26;20017;-58
2024/04/20 08:29:47;;;;;;;2.50;1.30;;;;;;;;;;5410763;26;20032;-53
2024/04/20 08:32:13;;;;;;;2.58;1.10;;;;;;;;;;5406755;26;20003;-59
2024/04/20 08:34:39;;;;;;;3.33;1.02;;;;;;;;;;5373613;26;20008;-52
2024/04/20 08:37:05;;;;;;;3.53;1.27;;;;;;;;;;5373294;26;20015;-54
2024/04/20 08:39:31;;;;;;;1.52;0.93;;;;;;;;;;5375242;26;20032;-55
2024/04/20 08:41:57;;;;;;;2.15;1.13;;;;;;;;;;5374715;26;20015;-57
2024/04/20 08:44:25;;;;;;;1.52;1.20;;;;;;;;;;5373408;26;20901;-52
2024/04/20 08:46:52;;;;;;;2.08;1.20;;;;;;;;;;5372830;26;20005;-57
2024/04/20 08:49:19;;;;;;;2.38;1.00;;;;;;;;;;5344311;26;20383;-56
2024/04/20 08:51:45;;;;;;;2.92;1.30;;;;;;;;;;5375153;26;20495;-56
2024/04/20 08:54:12;;;;;;;3.05;1.10;;;;;;;;;;5375751;26;20094;-57
2024/04/20 08:56:38;;;;;;;5.75;1.25;;;;;;;;;;5372257;26;20016;-56
2024/04/20 08:59:04;;;;;;;1.58;0.90;;;;;;;;;;5372597;26;20012;-56
2024/04/20 09:01:30;;;;;;;0.95;0.65;;;;;;;;;;5374603;26;20012;-56
2024/04/20 09:03:56;;;;;;;2.10;0.80;;;;;;;;;;5374824;26;20044;-56
2024/04/20 09:06:23;;;;;;;1.73;0.98;;;;;;;;;;5372912;26;20078;-57
2024/04/20 09:08:48;;;;;;;2.10;0.98;;;;;;;;;;5375066;26;20020;-55
2024/04/20 09:11:15;;;;;;;2.53;1.00;;;;;;;;;;5372949;26;20044;-54
2024/04/20 09:13:41;;;;;;;4.05;0.90;;;;;;;;;;5379717;26;20010;-53
2024/04/20 09:16:06;;;;;;;1.90;0.80;;;;;;;;;;5374780;26;20015;-57
2024/04/20 09:18:32;;;;;;;1.40;0.95;;;;;;;;;;5345617;26;20004;-58
2024/04/20 09:20:59;;;;;;;1.80;0.90;;;;;;;;;;5391483;26;20019;-53
2024/04/20 09:23:24;;;;;;;3.65;0.90;;;;;;;;;;5389904;26;20004;-57
2024/04/20 09:25:51;;;;;;;3.40;1.02;;;;;;;;;;5374908;26;20010;-51
2024/04/20 09:28:17;;;;;;;7.55;1.00;;;;;;;;;;5374958;26;20580;-54
2024/04/20 09:30:42;;;;;;;2.83;1.05;;;;;;;;;;5375554;26;20009;-55
2024/04/20 09:33:14;;;;;;;1.30;1.00;;;;;;;;;;5388833;26;20122;-53
2024/04/20 09:35:42;;;;;;;1.70;1.00;;;;;;;;;;5390465;26;20016;-58
2024/04/20 09:38:07;;;;;;;4.47;1.15;;;;;;;;;;5386779;26;20000;-55
2024/04/20 09:40:33;;;;;;;2.70;1.20;;;;;;;;;;5378854;26;20008;-54
2024/04/20 09:43:00;;;;;;;1.00;0.80;;;;;;;;;;5385001;26;20007;-56
2024/04/20 09:45:28;;;;;;;0.98;0.80;;;;;;;;;;5372953;26;20018;-58
2024/04/20 09:47:56;;;;;;;3.50;1.52;;;;;;;;;;5373351;26;20008;-56
2024/04/20 09:50:24;;;;;;;1.47;0.90;;;;;;;;;;5406941;26;20023;-58
2024/04/20 09:52:53;;;;;;;3.63;1.10;;;;;;;;;;5409478;26;20047;-57
2024/04/20 09:55:19;;;;;;;;;;;;;;;;;;5407452;26;20015;-54
2024/04/20 09:57:45;;;;;;;1.33;1.02;;;;;;;;;;5395214;26;19932;-56
2024/04/20 10:00:11;;;;;;;2.78;1.05;;;;;;;;;;5387259;26;20012;-55
2024/04/20 10:02:37;;;;;;;2.45;1.63;;;;;;;;;;5384580;26;20012;-56
2024/04/20 10:05:03;;;;;;;2.10;1.23;;;;;;;;;;5372018;26;20016;-55
2024/04/20 10:07:32;;;;;;;1.10;0.93;;;;;;;;;;5375847;26;20004;-55
2024/04/20 10:10:01;;;;;;;1.17;1.05;;;;;;;;;;5378325;26;20016;-58
2024/04/20 10:12:31;;;;;;;1.90;1.05;;;;;;;;;;5372795;26;20472;-57
2024/04/20 10:14:57;;;;;;;6.78;1.33;;;;;;;;;;5371996;26;20023;-55
2024/04/20 10:17:25;;;;;;;2.30;1.60;;;;;;;;;;5342942;26;20016;-53
2024/04/20 10:19:52;;;;;;;2.22;1.35;;;;;;;;;;5344034;26;20023;-56
2024/04/20 10:22:21;;;;;;;1.75;1.40;;;;;;;;;;5371990;26;20004;-56
2024/04/20 10:24:50;;;;;;;4.00;1.25;;;;;;;;;;5371899;26;20509;-57
2024/04/20 10:27:28;;;;;;;3.42;1.20;;;;;;;;;;5377286;26;20092;-53
2024/04/20 10:30:14;;;;;;;2.08;1.10;;;;;;;;;;5398411;26;20004;-55
2024/04/20 10:32:40;;;;;;;2.42;1.30;;;;;;;;;;5358515;26;20418;-50
2024/04/20 10:35:07;;;;;;;2.28;1.20;;;;;;;;;;5370970;26;20022;-55
2024/04/20 10:37:34;;;;;;;2.58;1.23;;;;;;;;;;5370621;26;20440;-55
2024/04/20 10:40:13;;;;;;;4.07;1.00;;;;;;;;;;5371445;26;20004;-56
2024/04/20 10:42:40;;;;;;;1.30;1.02;;;;;;;;;;5371317;26;20036;-55
2024/04/20 10:45:06;;;;;;;1.45;1.20;;;;;;;;;;5373436;26;20079;-53
2024/04/20 10:47:36;;;;;;;1.92;1.30;;;;;;;;;;5373744;26;20008;-54
2024/04/20 10:50:02;;;;;;;1.88;1.10;;;;;;;;;;5373244;26;20542;-53
2024/04/20 10:52:31;;;;;;;2.25;1.45;;;;;;;;;;5373845;26;20081;-55
2024/04/20 10:54:57;;;;;;;2.60;1.10;;;;;;;;;;5371718;26;20078;-55
2024/04/20 10:57:28;;;;;;;5.28;1.48;;;;;;;;;;5372668;26;20098;-52
2024/04/20 10:59:54;;;;;;;4.85;1.10;;;;;;;;;;5372617;26;20008;-55
2024/04/20 11:02:20;;;;;;;2.40;1.33;;;;;;;;;;5371290;26;20016;-55
2024/04/20 11:04:46;;;;;;;2.22;1.13;;;;;;;;;;5370799;26;20491;-54
2024/04/20 11:07:15;;;;;;;2.95;1.40;;;;;;;;;;5370987;26;20000;-54
2024/04/20 11:09:45;;;;;;;2.70;0.98;;;;;;;;;;5372612;26;20015;-51
2024/04/20 11:12:12;;;;;;;2.15;1.50;;;;;;;;;;5388534;26;20478;-54
2024/04/20 11:14:37;;;;;;;2.30;1.60;;;;;;;;;;5380577;26;20014;-56
2024/04/20 11:17:04;;;;;;;8.80;1.77;;;;;;;;;;5407851;26;20220;-53
2024/04/20 11:19:36;;;;;;;1.52;1.08;;;;;;;;;;5407253;26;20007;-57
2024/04/20 11:22:02;;;;;;;2.88;1.30;;;;;;;;;;5352790;26;20005;-54
2024/04/20 11:24:31;;;;;;;3.85;1.05;;;;;;;;;;5375368;26;20703;-52
2024/04/20 11:27:05;;;;;;;2.20;1.40;;;;;;;;;;5376677;26;20004;-57
2024/04/20 11:29:31;;;;;;;4.07;1.40;;;;;;;;;;5374328;26;20623;-57
2024/04/20 11:32:01;;;;;;;1.75;1.02;;;;;;;;;;5389890;26;20004;-52
2024/04/20 11:34:27;;;;;;;1.45;1.15;;;;;;;;;;5389344;26;20084;-57
2024/04/20 11:36:53;;;;;;;2.17;1.35;;;;;;;;;;5393428;26;20482;-55
2024/04/20 11:39:19;;;;;;;1.95;1.25;;;;;;;;;;5390112;26;20510;-56
2024/04/20 11:41:45;;;;;;;2.88;0.98;;;;;;;;;;5385706;26;20008;-53
2024/04/20 11:44:11;;;;;;;3.20;1.27;;;;;;;;;;5389698;26;20023;-52
2024/04/20 11:46:38;;;;;;;2.10;1.20;;;;;;;;;;5394236;26;20007;-55
2024/04/20 11:49:10;;;;;;;1.88;1.08;;;;;;;;;;5391016;26;20011;-58
2024/04/20 11:54:21;;;;;;;3.15;1.50;;;;;;;;;;5393274;26;20000;-54
2024/04/20 11:56:48;;;;;;;2.75;1.20;;;;;;;;;;5392052;26;20008;-55
2024/04/20 11:59:14;;;;;;;2.85;1.00;;;;;;;;;;5396474;26;20346;-61
2024/04/20 12:01:40;;;;;;;1.40;1.20;;;;;;;;;;5409614;26;20011;-60
2024/04/20 12:04:08;;;;;;;2.85;1.10;;;;;;;;;;5390245;26;20031;-58
2024/04/20 12:06:34;;;;;;;2.83;1.20;;;;;;;;;;5344511;26;20081;-57
2024/04/20 12:09:00;;;;;;;1.88;1.17;;;;;;;;;;5375772;26;20004;-60
2024/04/20 12:11:26;;;;;;;3.22;1.25;;;;;;;;;;5375930;26;20058;-58
2024/04/20 12:13:52;;;;;;;5.28;1.42;;;;;;;;;;5374299;26;20036;-54
2024/04/20 12:16:18;;;;;;;5.30;1.60;;;;;;;;;;5373838;26;20375;-57
2024/04/20 12:18:46;;;;;;;1.85;1.00;;;;;;;;;;5375420;26;20475;-54
2024/04/20 12:21:17;;;;;;;3.70;1.33;;;;;;;;;;5386851;26;20395;-56
2024/04/20 12:23:46;;;;;;;2.63;1.17;;;;;;;;;;5366561;26;20004;-58
2024/04/20 12:26:12;;;;;;;2.67;1.15;;;;;;;;;;5372746;26;20080;-55
2024/04/20 12:28:38;;;;;;;1.00;0.80;;;;;;;;;;5373288;26;20012;-57
2024/04/20 12:31:04;;;;;;;4.65;1.40;;;;;;;;;;5375650;26;20020;-55
2024/04/20 12:33:31;;;;;;;7.10;1.20;;;;;;;;;;5373758;26;20077;-54
2024/04/20 12:35:57;;;;;;;3.03;1.20;;;;;;;;;;5374800;26;20016;-52
2024/04/20 12:38:23;;;;;;;2.28;1.00;;;;;;;;;;5375016;26;20415;-58
2024/04/20 12:40:49;;;;;;;1.98;1.10;;;;;;;;;;5372986;26;20096;-56
2024/04/20 12:43:15;;;;;;;2.95;1.27;;;;;;;;;;5373159;26;20493;-57
2024/04/20 12:45:40;;;;;;;2.30;1.10;;;;;;;;;;5375238;26;20479;-60
2024/04/20 12:48:06;;;;;;;1.52;1.10;;;;;;;;;;5374804;26;20012;-57
2024/04/20 12:50:32;;;;;;;9.57;1.30;;;;;;;;;;5374998;26;20496;-55
2024/04/20 12:52:58;;;;;;;1.65;1.20;;;;;;;;;;5373351;26;20367;-57
2024/04/20 12:55:23;;;;;;;2.72;1.08;;;;;;;;;;5373999;26;20077;-57
2024/04/20 12:57:49;;;;;;;2.92;0.90;;;;;;;;;;5375051;26;20374;-60
2024/04/20 13:00:15;;;;;;;4.13;1.00;;;;;;;;;;5360358;26;20000;-59
2024/04/20 13:02:42;;;;;;;1.67;0.95;;;;;;;;;;5407753;26;20011;-54
2024/04/20 13:05:09;;;;;;;1.42;1.20;;;;;;;;;;5371669;26;20078;-53
2024/04/20 13:07:34;;;;;;;1.70;1.25;;;;;;;;;;5374589;26;20004;-59
2024/04/20 13:10:00;;;;;;;3.22;1.20;;;;;;;;;;5374887;26;20008;-57
2024/04/20 13:12:26;;;;;;;4.15;1.33;;;;;;;;;;5373040;26;20495;-57
2024/04/20 13:14:52;;;;;;;1.48;1.10;;;;;;;;;;5372147;26;20018;-57
2024/04/20 13:17:18;;;;;;;2.40;0.90;;;;;;;;;;5374604;26;20001;-57
2024/04/20 13:19:46;;;;;;;3.85;1.08;;;;;;;;;;5373126;26;20005;-56
2024/04/20 13:22:14;;;;;;;3.17;1.25;;;;;;;;;;5374566;26;20077;-58
2024/04/20 13:24:39;;;;;;;7.50;1.30;;;;;;;;;;5372471;26;20016;-56
2024/04/20 13:27:05;;;;;;;2.88;1.10;;;;;;;;;;5395437;26;20054;-58
2024/04/20 13:29:31;;;;;;;5.88;1.23;;;;;;;;;;5373555;26;20000;-57
2024/04/20 13:31:57;;;;;;;1.67;1.00;;;;;;;;;;5378157;26;20019;-56
2024/04/20 13:34:23;;;;;;;3.60;1.48;;;;;;;;;;5402316;26;19997;-57
2024/04/20 13:36:48;;;;;;;5.68;3.17;;;;;;;;;;5372473;26;20022;-55
2024/04/20 13:39:14;;;;;;;1.20;0.80;;;;;;;;;;5373297;26;20008;-57
2024/04/20 13:41:40;;;;;;;1.45;1.02;;;;;;;;;;5372132;26;20008;-58
2024/04/20 13:44:06;;;;;;;2.40;1.10;;;;;;;;;;5372063;26;20000;-54
2024/04/20 13:46:32;;;;;;;1.20;0.88;;;;;;;;;;5386407;26;20011;-55
2024/04/20 13:48:58;;;;;;;2.35;0.90;;;;;;;;;;5387930;26;20008;-58
2024/04/20 13:51:24;;;;;;;1.63;1.05;;;;;;;;;;5372496;26;20019;-56
2024/04/20 13:53:50;;;;;;;1.83;0.85;;;;;;;;;;5372496;26;20015;-56
2024/04/20 13:56:16;;;;;;;1.15;0.85;;;;;;;;;;5374153;26;20024;-52
2024/04/20 13:58:41;;;;;;;1.50;1.05;;;;;;;;;;5384367;26;19996;-55
2024/04/20 14:01:09;;;;;;;4.13;1.02;;;;;;;;;;5407898;26;20007;-56
2024/04/20 14:03:35;;;;;;;2.53;0.90;;;;;;;;;;5407428;26;20072;-57
2024/04/20 14:06:01;;;;;;;2.63;1.00;;;;;;;;;;5409420;26;20015;-58
2024/04/20 14:08:26;;;;;;;2.22;1.05;;;;;;;;;;5403729;26;20021;-54
2024/04/20 14:11:02;;;;;;;3.05;1.30;;;;;;;;;;5374206;26;20046;-56
2024/04/20 14:13:27;;;;;;;1.90;1.15;;;;;;;;;;5371915;26;20074;-54
2024/04/20 14:15:54;;;;;;;3.17;1.05;;;;;;;;;;5371597;26;20012;-56
2024/04/20 14:18:20;;;;;;;2.72;0.80;;;;;;;;;;5373081;26;20434;-55
2024/04/20 14:20:46;;;;;;;2.17;0.80;;;;;;;;;;5390149;26;20024;-52
2024/04/20 14:23:11;;;;;;;2.13;1.10;;;;;;;;;;5371205;26;20369;-58
2024/04/20 14:25:37;;;;;;;1.00;0.75;;;;;;;;;;5406849;26;20011;-54
2024/04/20 14:28:03;;;;;;;1.10;0.77;;;;;;;;;;5408453;26;20472;-55
2024/04/20 14:30:29;;;;;;;1.08;0.88;;;;;;;;;;5400856;26;20097;-54
2024/04/20 14:32:54;;;;;;;3.72;1.00;;;;;;;;;;5376791;26;20028;-59
2024/04/20 14:35:20;;;;;;;1.88;0.70;;;;;;;;;;5373241;26;20004;-54
2024/04/20 14:37:46;;;;;;;1.10;0.80;;;;;;;;;;5373328;26;20486;-55
2024/04/20 14:40:11;;;;;;;2.90;0.98;;;;;;;;;;5375834;26;20102;-56